createdAt,value
2018-09-20T00:01:39.496Z,15.20
2018-09-20T00:04:08.058Z,15.10
2018-09-20T00:06:36.645Z,14.90
2018-09-20T00:09:06.841Z,14.80
2018-09-20T00:11:35.470Z,14.70
2018-09-20T00:14:04.098Z,14.60
2018-09-20T00:16:32.806Z,14.70
2018-09-20T00:19:01.376Z,14.90
2018-09-20T00:21:29.966Z,14.90
2018-09-20T00:23:58.539Z,14.70
2018-09-20T00:26:27.158Z,14.70
2018-09-20T00:28:55.697Z,14.50
2018-09-20T00:31:24.267Z,14.70
2018-09-20T00:33:52.859Z,14.80
2018-09-20T00:36:21.429Z,14.90
2018-09-20T00:38:49.973Z,14.80
2018-09-20T00:41:18.647Z,14.90
2018-09-20T00:43:47.202Z,14.80
2018-09-20T00:46:15.795Z,14.60
2018-09-20T00:48:44.339Z,14.60
2018-09-20T00:51:12.958Z,14.70
2018-09-20T00:53:41.513Z,14.60
2018-09-20T00:56:10.094Z,14.60
2018-09-20T00:58:38.668Z,14.70
2018-09-20T01:01:07.350Z,14.90
2018-09-20T01:03:35.910Z,14.80
2018-09-20T01:06:04.491Z,14.70
2018-09-20T01:08:33.048Z,14.60
2018-09-20T01:11:01.625Z,14.50
2018-09-20T01:13:30.216Z,14.50
2018-09-20T01:15:58.817Z,14.60
2018-09-20T01:18:27.347Z,14.60
2018-09-20T01:20:55.882Z,14.70
2018-09-20T01:23:24.542Z,14.50
2018-09-20T01:25:53.120Z,14.50
2018-09-20T01:28:21.714Z,14.60
2018-09-20T01:30:50.251Z,14.40
2018-09-20T01:33:25.387Z,14.30
2018-09-20T01:35:53.961Z,14.10
2018-09-20T01:38:22.531Z,14.00
2018-09-20T01:40:51.079Z,13.80
2018-09-20T01:43:19.646Z,13.80
2018-09-20T01:45:48.222Z,13.80
2018-09-20T01:48:16.789Z,14.10
2018-09-20T01:50:45.357Z,14.10
2018-09-20T01:53:13.938Z,14.10
2018-09-20T01:55:42.508Z,14.00
2018-09-20T01:58:11.090Z,13.90
2018-09-20T02:00:39.690Z,14.00
2018-09-20T02:03:08.274Z,13.90
2018-09-20T02:05:37.006Z,13.90
2018-09-20T02:08:05.740Z,14.00
2018-09-20T02:10:34.282Z,13.80
2018-09-20T02:13:03.081Z,13.90
2018-09-20T02:15:32.114Z,13.90
2018-09-20T02:18:00.691Z,13.90
2018-09-20T02:20:29.249Z,13.70
2018-09-20T02:22:57.827Z,13.40
2018-09-20T02:25:26.378Z,13.50
2018-09-20T02:27:55.152Z,13.50
2018-09-20T02:30:23.833Z,13.50
2018-09-20T02:32:52.463Z,13.60
2018-09-20T02:35:21.054Z,13.80
2018-09-20T02:37:49.601Z,13.80
2018-09-20T02:40:18.236Z,13.60
2018-09-20T02:42:46.771Z,13.60
2018-09-20T02:45:15.310Z,13.60
2018-09-20T02:47:43.917Z,13.50
2018-09-20T02:50:12.471Z,13.60
2018-09-20T02:52:40.975Z,13.80
2018-09-20T02:55:09.551Z,13.70
2018-09-20T02:57:38.064Z,13.60
2018-09-20T03:00:06.746Z,13.50
2018-09-20T03:02:38.145Z,13.50
2018-09-20T03:05:06.746Z,13.70
2018-09-20T03:07:35.314Z,13.70
2018-09-20T03:10:03.972Z,13.70
2018-09-20T03:12:32.537Z,13.60
2018-09-20T03:15:01.117Z,13.60
2018-09-20T03:17:29.699Z,13.70
2018-09-20T03:19:58.349Z,13.60
2018-09-20T03:22:26.914Z,13.50
2018-09-20T03:24:55.500Z,13.40
2018-09-20T03:27:24.054Z,13.20
2018-09-20T03:29:52.681Z,13.10
2018-09-20T03:32:21.263Z,13.00
2018-09-20T03:34:49.859Z,13.10
2018-09-20T03:37:18.425Z,13.00
2018-09-20T03:39:46.981Z,13.10
2018-09-20T03:42:15.565Z,13.20
2018-09-20T03:44:44.104Z,13.20
2018-09-20T03:47:12.701Z,13.20
2018-09-20T03:49:41.904Z,13.10
2018-09-20T03:52:10.549Z,13.10
2018-09-20T03:54:39.123Z,13.10
2018-09-20T03:57:07.759Z,13.20
2018-09-20T03:59:36.302Z,13.20
2018-09-20T04:02:04.877Z,13.10
2018-09-20T04:04:33.432Z,12.90
2018-09-20T04:07:02.020Z,12.90
2018-09-20T04:09:30.582Z,12.90
2018-09-20T04:11:59.139Z,12.70
2018-09-20T04:14:27.677Z,12.70
2018-09-20T04:16:56.198Z,12.70
2018-09-20T04:19:24.790Z,12.70
2018-09-20T04:21:53.432Z,12.80
2018-09-20T04:24:21.987Z,12.90
2018-09-20T04:26:50.522Z,13.00
2018-09-20T04:29:19.120Z,13.00
2018-09-20T04:31:47.718Z,13.00
2018-09-20T04:34:16.189Z,13.00
2018-09-20T04:36:44.723Z,13.00
2018-09-20T04:39:13.238Z,13.00
2018-09-20T04:41:41.769Z,12.90
2018-09-20T04:44:10.306Z,12.90
2018-09-20T04:46:38.862Z,12.90
2018-09-20T04:49:07.389Z,12.90
2018-09-20T04:51:35.905Z,12.80
2018-09-20T04:54:04.542Z,12.90
2018-09-20T04:56:33.033Z,12.90
2018-09-20T04:59:01.618Z,13.00
2018-09-20T05:01:30.203Z,12.90
2018-09-20T05:03:58.750Z,13.00
2018-09-20T05:06:27.353Z,12.80
2018-09-20T05:08:56.132Z,12.80
2018-09-20T05:11:24.745Z,12.80
2018-09-20T05:13:53.390Z,12.90
2018-09-20T05:16:21.982Z,12.90
2018-09-20T05:18:50.716Z,12.90
2018-09-20T05:21:19.401Z,12.90
2018-09-20T05:23:47.971Z,12.80
2018-09-20T05:26:16.577Z,12.90
2018-09-20T05:28:45.207Z,12.80
2018-09-20T05:31:13.894Z,12.80
2018-09-20T05:33:44.365Z,12.70
2018-09-20T05:36:12.970Z,12.80
2018-09-20T05:38:41.617Z,12.90
2018-09-20T05:41:10.343Z,13.10
2018-09-20T05:43:38.970Z,13.30
2018-09-20T05:46:07.652Z,13.40
2018-09-20T05:48:36.209Z,13.60
2018-09-20T05:51:04.839Z,13.70
2018-09-20T05:53:33.434Z,13.70
2018-09-20T05:56:02.097Z,13.90
2018-09-20T05:58:30.688Z,14.10
2018-09-20T06:00:59.394Z,14.40
2018-09-20T06:03:28.051Z,14.50
2018-09-20T06:05:56.654Z,14.60
2018-09-20T06:08:25.374Z,14.70
2018-09-20T06:10:54.026Z,14.90
2018-09-20T06:13:22.752Z,15.00
2018-09-20T06:15:51.420Z,15.10
2018-09-20T06:18:20.044Z,15.50
2018-09-20T06:20:48.707Z,15.80
2018-09-20T06:23:17.427Z,16.00
2018-09-20T06:25:46.052Z,16.10
2018-09-20T06:28:14.611Z,16.30
2018-09-20T06:30:43.230Z,16.50
2018-09-20T06:33:11.818Z,16.50
2018-09-20T06:35:40.478Z,16.80
2018-09-20T06:38:09.066Z,16.80
2018-09-20T06:40:37.703Z,16.90
2018-09-20T06:43:06.449Z,17.20
2018-09-20T06:45:35.082Z,17.40
2018-09-20T06:48:03.693Z,17.50
2018-09-20T06:50:32.365Z,17.60
2018-09-20T06:53:00.951Z,17.80
2018-09-20T06:55:29.546Z,17.90
2018-09-20T06:57:58.171Z,18.10
2018-09-20T07:00:26.797Z,18.00
2018-09-20T07:02:55.400Z,18.20
2018-09-20T07:05:24.061Z,18.50
2018-09-20T07:07:52.686Z,18.80
2018-09-20T07:10:21.326Z,18.70
2018-09-20T07:12:50.012Z,19.00
2018-09-20T07:15:18.669Z,19.30
2018-09-20T07:17:47.287Z,19.30
2018-09-20T07:20:15.911Z,19.40
2018-09-20T07:22:45.602Z,19.60
2018-09-20T07:25:14.421Z,19.90
2018-09-20T07:27:43.039Z,19.90
2018-09-20T07:30:11.665Z,20.10
2018-09-20T07:32:40.352Z,20.20
2018-09-20T07:35:09.263Z,20.50
2018-09-20T07:37:37.997Z,20.80
2018-09-20T07:40:06.642Z,20.90
2018-09-20T07:42:35.378Z,21.10
2018-09-20T07:45:04.104Z,21.40
2018-09-20T07:47:32.780Z,21.60
2018-09-20T07:50:01.369Z,21.70
2018-09-20T07:52:29.959Z,21.90
2018-09-20T07:54:58.569Z,22.20
2018-09-20T07:57:29.356Z,22.30
2018-09-20T07:59:59.536Z,22.50
2018-09-20T08:02:28.115Z,22.70
2018-09-20T08:04:56.704Z,22.90
2018-09-20T08:07:25.237Z,23.00
2018-09-20T08:09:53.818Z,22.70
2018-09-20T08:12:22.371Z,23.00
2018-09-20T08:14:51.045Z,23.30
2018-09-20T08:17:19.671Z,23.50
2018-09-20T08:19:48.337Z,23.70
2018-09-20T08:22:16.884Z,23.90
2018-09-20T08:24:45.799Z,24.10
2018-09-20T08:27:14.377Z,24.20
2018-09-20T08:29:42.981Z,24.60
2018-09-20T08:32:11.667Z,24.80
2018-09-20T08:34:40.246Z,24.90
2018-09-20T08:37:08.856Z,25.10
2018-09-20T08:39:37.395Z,25.30
2018-09-20T08:42:06.103Z,25.20
2018-09-20T08:44:34.619Z,25.20
2018-09-20T08:47:03.202Z,25.20
2018-09-20T08:49:31.978Z,25.30
2018-09-20T08:52:00.486Z,25.50
2018-09-20T08:54:29.062Z,25.50
2018-09-20T08:56:57.755Z,25.50
2018-09-20T08:59:26.271Z,25.50
2018-09-20T09:01:54.878Z,25.70
2018-09-20T09:04:23.513Z,25.60
2018-09-20T09:06:52.101Z,25.80
2018-09-20T09:09:20.695Z,26.00
2018-09-20T09:11:49.436Z,26.20
2018-09-20T09:14:18.089Z,26.50
2018-09-20T09:16:46.709Z,26.60
2018-09-20T09:19:15.311Z,26.40
2018-09-20T09:21:43.998Z,26.50
2018-09-20T09:24:12.775Z,26.80
2018-09-20T09:26:41.407Z,27.00
2018-09-20T09:29:10.027Z,27.30
2018-09-20T09:31:38.687Z,27.40
2018-09-20T09:34:07.342Z,27.70
2018-09-20T09:36:36.043Z,27.80
2018-09-20T09:39:07.054Z,28.00
2018-09-20T09:41:35.661Z,28.00
2018-09-20T09:44:04.355Z,28.30
2018-09-20T09:46:33.024Z,28.50
2018-09-20T09:49:01.716Z,28.50
2018-09-20T09:51:30.329Z,28.60
2018-09-20T09:53:59.060Z,28.60
2018-09-20T09:56:27.756Z,28.80
2018-09-20T09:58:56.418Z,28.80
2018-09-20T10:01:25.074Z,28.60
2018-09-20T10:03:53.711Z,28.90
2018-09-20T10:06:22.323Z,29.00
2018-09-20T10:08:50.896Z,29.10
2018-09-20T10:11:19.534Z,29.00
2018-09-20T10:13:48.258Z,29.20
2018-09-20T10:16:16.861Z,29.40
2018-09-20T10:18:45.518Z,29.70
2018-09-20T10:21:14.196Z,29.50
2018-09-20T10:23:42.898Z,29.40
2018-09-20T10:26:11.571Z,29.40
2018-09-20T10:28:40.190Z,29.70
2018-09-20T10:31:08.874Z,29.40
2018-09-20T10:33:37.511Z,29.50
2018-09-20T10:36:06.357Z,30.00
2018-09-20T10:38:35.072Z,30.10
2018-09-20T10:41:03.761Z,30.10
2018-09-20T10:43:32.385Z,30.00
2018-09-20T10:46:01.236Z,30.10
2018-09-20T10:48:29.837Z,30.20
2018-09-20T10:50:58.642Z,29.90
2018-09-20T10:53:27.594Z,29.90
2018-09-20T10:55:56.419Z,30.10
2018-09-20T10:58:25.194Z,30.00
2018-09-20T11:00:53.775Z,30.00
2018-09-20T11:03:22.450Z,30.00
2018-09-20T11:05:51.023Z,29.60
2018-09-20T11:08:19.582Z,29.80
2018-09-20T11:10:48.224Z,29.90
2018-09-20T11:13:16.823Z,29.70
2018-09-20T11:15:45.410Z,30.00
2018-09-20T11:18:13.931Z,29.90
2018-09-20T11:20:42.515Z,30.20
2018-09-20T11:23:11.123Z,30.60
2018-09-20T11:25:39.743Z,30.80
2018-09-20T11:28:08.291Z,30.80
2018-09-20T11:30:36.869Z,30.50
2018-09-20T11:33:05.489Z,30.20
2018-09-20T11:35:34.133Z,30.20
2018-09-20T11:38:02.682Z,30.00
2018-09-20T11:40:31.469Z,29.90
2018-09-20T11:43:00.298Z,29.70
2018-09-20T11:45:29.004Z,29.90
2018-09-20T11:47:57.693Z,30.10
2018-09-20T11:50:26.266Z,30.40
2018-09-20T11:52:54.830Z,30.40
2018-09-20T11:55:23.564Z,30.50
2018-09-20T11:57:52.163Z,30.80
2018-09-20T12:00:22.025Z,30.50
2018-09-20T12:02:52.357Z,30.80
2018-09-20T12:05:21.417Z,30.60
2018-09-20T12:07:50.081Z,30.80
2018-09-20T12:10:19.198Z,31.20
2018-09-20T12:12:48.180Z,30.80
2018-09-20T12:15:16.863Z,30.90
2018-09-20T12:17:45.620Z,30.40
2018-09-20T12:20:14.282Z,30.60
2018-09-20T12:22:42.975Z,31.00
2018-09-20T12:25:11.615Z,31.10
2018-09-20T12:27:40.234Z,30.70
2018-09-20T12:30:08.919Z,30.90
2018-09-20T12:32:37.552Z,30.70
2018-09-20T12:35:06.151Z,30.60
2018-09-20T12:37:36.397Z,30.30
2018-09-20T12:40:06.515Z,30.40
2018-09-20T12:42:35.163Z,30.80
2018-09-20T12:45:03.846Z,30.60
2018-09-20T12:47:33.037Z,30.40
2018-09-20T12:50:01.599Z,30.70
2018-09-20T12:52:30.263Z,30.90
2018-09-20T12:54:58.843Z,30.80
2018-09-20T12:57:27.485Z,31.00
2018-09-20T12:59:56.195Z,31.10
2018-09-20T13:02:24.886Z,31.00
2018-09-20T13:04:53.513Z,30.90
2018-09-20T13:07:22.153Z,30.60
2018-09-20T13:09:50.775Z,30.70
2018-09-20T13:12:19.503Z,30.70
2018-09-20T13:14:48.194Z,30.60
2018-09-20T13:17:17.127Z,30.60
2018-09-20T13:19:45.689Z,30.60
2018-09-20T13:22:14.587Z,30.20
2018-09-20T13:24:43.391Z,30.40
2018-09-20T13:27:11.936Z,30.30
2018-09-20T13:29:40.598Z,30.20
2018-09-20T13:32:09.194Z,30.60
2018-09-20T13:34:37.968Z,30.80
2018-09-20T13:37:06.658Z,30.70
2018-09-20T13:39:35.361Z,30.70
2018-09-20T13:42:04.039Z,30.50
2018-09-20T13:44:32.638Z,30.80
2018-09-20T13:47:01.287Z,30.80
2018-09-20T13:49:29.962Z,30.70
2018-09-20T13:51:58.660Z,30.60
2018-09-20T13:54:27.261Z,30.80
2018-09-20T13:56:55.914Z,30.60
2018-09-20T13:59:24.625Z,30.70
2018-09-20T14:01:53.300Z,30.60
2018-09-20T14:04:22.222Z,30.50
2018-09-20T14:06:50.866Z,30.40
2018-09-20T14:09:19.646Z,30.50
2018-09-20T14:11:48.190Z,30.40
2018-09-20T14:14:16.825Z,30.30
2018-09-20T14:16:45.381Z,30.30
2018-09-20T14:19:13.967Z,30.50
2018-09-20T14:21:42.570Z,30.50
2018-09-20T14:24:11.159Z,30.40
2018-09-20T14:26:39.890Z,30.50
2018-09-20T14:29:08.564Z,30.50
2018-09-20T14:31:37.108Z,30.30
2018-09-20T14:34:05.670Z,30.10
2018-09-20T14:36:34.296Z,30.10
2018-09-20T14:39:02.978Z,30.30
2018-09-20T14:41:31.559Z,30.20
2018-09-20T14:44:00.127Z,30.30
2018-09-20T14:46:28.690Z,30.20
2018-09-20T14:48:57.219Z,30.00
2018-09-20T14:51:25.784Z,30.10
2018-09-20T14:53:54.314Z,30.00
2018-09-20T14:56:22.881Z,30.00
2018-09-20T14:58:51.416Z,30.00
2018-09-20T15:01:20.039Z,29.90
2018-09-20T15:03:49.748Z,29.80
2018-09-20T15:06:19.407Z,29.90
2018-09-20T15:08:48.127Z,29.90
2018-09-20T15:11:16.802Z,29.90
2018-09-20T15:13:45.464Z,29.80
2018-09-20T15:16:14.147Z,29.80
2018-09-20T15:18:42.721Z,29.80
2018-09-20T15:21:11.399Z,29.70
2018-09-20T15:23:40.034Z,29.70
2018-09-20T15:26:08.667Z,29.50
2018-09-20T15:28:37.315Z,29.40
2018-09-20T15:31:06.187Z,29.20
2018-09-20T15:33:34.839Z,29.20
2018-09-20T15:36:03.446Z,29.10
2018-09-20T15:38:32.065Z,29.10
2018-09-20T15:41:38.973Z,29.00
2018-09-20T15:44:07.766Z,29.00
2018-09-20T15:46:36.433Z,28.90
2018-09-20T15:49:05.268Z,28.80
2018-09-20T15:51:33.909Z,28.80
2018-09-20T15:54:02.538Z,28.70
2018-09-20T15:56:31.306Z,28.70
2018-09-20T15:58:59.878Z,28.60
2018-09-20T16:01:28.484Z,28.50
2018-09-20T16:03:57.032Z,28.70
2018-09-20T16:06:25.559Z,28.90
2018-09-20T16:08:54.123Z,28.60
2018-09-20T16:11:22.638Z,28.40
2018-09-20T16:13:51.271Z,28.40
2018-09-20T16:16:19.807Z,28.30
2018-09-20T16:18:48.357Z,28.20
2018-09-20T16:21:16.924Z,28.10
2018-09-20T16:23:45.476Z,28.10
2018-09-20T16:26:14.014Z,28.10
2018-09-20T16:28:56.997Z,28.00
2018-09-20T16:31:39.205Z,28.10
2018-09-20T16:34:31.328Z,28.10
2018-09-20T16:37:10.942Z,27.90
2018-09-20T16:39:40.416Z,27.90
2018-09-20T16:42:09.701Z,28.00
2018-09-20T16:44:38.285Z,27.90
2018-09-20T16:47:06.917Z,27.90
2018-09-20T16:49:35.518Z,27.80
2018-09-20T16:52:04.090Z,27.70
2018-09-20T16:54:32.632Z,27.70
2018-09-20T16:57:01.209Z,27.50
2018-09-20T16:59:29.781Z,27.30
2018-09-20T17:01:58.346Z,27.30
2018-09-20T17:04:26.943Z,27.10
2018-09-20T17:06:55.451Z,26.80
2018-09-20T17:09:24.030Z,26.60
2018-09-20T17:11:52.586Z,26.50
2018-09-20T17:14:21.137Z,26.30
2018-09-20T17:16:49.740Z,26.10
2018-09-20T17:19:18.302Z,26.00
2018-09-20T17:21:46.845Z,25.90
2018-09-20T17:24:15.382Z,25.70
2018-09-20T17:26:43.929Z,25.50
2018-09-20T17:29:12.470Z,25.20
2018-09-20T17:31:40.985Z,25.00
2018-09-20T17:34:09.504Z,24.90
2018-09-20T17:36:38.306Z,24.60
2018-09-20T17:39:10.395Z,24.60
2018-09-20T17:41:39.836Z,24.10
2018-09-20T17:44:09.104Z,23.80
2018-09-20T17:46:37.665Z,23.90
2018-09-20T17:49:06.304Z,23.60
2018-09-20T17:51:35.316Z,23.60
2018-09-20T17:54:04.011Z,23.70
2018-09-20T17:56:33.024Z,23.40
2018-09-20T17:59:01.874Z,23.30
2018-09-20T18:01:30.491Z,23.20
2018-09-20T18:03:59.058Z,23.10
2018-09-20T18:06:27.641Z,23.00
2018-09-20T18:08:56.195Z,22.90
2018-09-20T18:11:24.802Z,22.80
2018-09-20T18:13:53.408Z,22.70
2018-09-20T18:16:21.993Z,22.40
2018-09-20T18:18:50.610Z,22.30
2018-09-20T18:21:19.195Z,22.20
2018-09-20T18:23:47.782Z,22.10
2018-09-20T18:26:16.334Z,21.80
2018-09-20T18:28:44.932Z,21.40
2018-09-20T18:31:13.498Z,21.30
2018-09-20T18:33:42.073Z,21.20
2018-09-20T18:36:10.645Z,20.90
2018-09-20T18:38:39.234Z,21.20
2018-09-20T18:41:07.794Z,20.90
2018-09-20T18:43:36.416Z,20.70
2018-09-20T18:46:05.038Z,20.40
2018-09-20T18:48:33.613Z,20.50
2018-09-20T18:51:02.186Z,20.60
2018-09-20T18:53:30.770Z,20.40
2018-09-20T18:55:59.326Z,20.50
2018-09-20T18:58:27.922Z,20.70
2018-09-20T19:00:56.531Z,20.50
2018-09-20T19:03:25.129Z,20.40
2018-09-20T19:05:53.692Z,20.10
2018-09-20T19:08:22.279Z,19.60
2018-09-20T19:10:50.964Z,19.80
2018-09-20T19:13:19.585Z,19.70
2018-09-20T19:15:48.198Z,19.80
2018-09-20T19:18:16.822Z,19.70
2018-09-20T19:20:45.448Z,19.60
2018-09-20T19:23:14.191Z,19.50
2018-09-20T19:25:42.813Z,19.10
2018-09-20T19:28:11.375Z,19.00
2018-09-20T19:30:40.006Z,19.10
2018-09-20T19:33:08.618Z,19.00
2018-09-20T19:35:37.213Z,19.00
2018-09-20T19:38:05.857Z,18.90
2018-09-20T19:40:34.443Z,18.70
2018-09-20T19:43:03.007Z,18.90
2018-09-20T19:45:31.607Z,18.90
2018-09-20T19:48:00.162Z,18.80
2018-09-20T19:50:28.786Z,18.70
2018-09-20T19:52:57.360Z,18.70
2018-09-20T19:55:25.935Z,18.70
2018-09-20T19:57:54.481Z,18.50
2018-09-20T20:00:23.115Z,18.40
2018-09-20T20:02:51.940Z,18.10
2018-09-20T20:05:20.537Z,18.10
2018-09-20T20:07:49.166Z,18.10
2018-09-20T20:10:17.789Z,17.90
2018-09-20T20:12:46.374Z,17.70
2018-09-20T20:15:14.958Z,17.70
2018-09-20T20:17:43.514Z,17.70
2018-09-20T20:20:12.118Z,17.70
2018-09-20T20:22:40.687Z,17.90
2018-09-20T20:25:09.643Z,17.80
2018-09-20T20:27:38.292Z,17.60
2018-09-20T20:30:06.960Z,17.50
2018-09-20T20:32:35.636Z,17.60
2018-09-20T20:35:04.286Z,17.60
2018-09-20T20:37:32.845Z,17.50
2018-09-20T20:40:01.430Z,17.20
2018-09-20T20:42:30.077Z,17.10
2018-09-20T20:44:58.636Z,17.20
2018-09-20T20:47:27.221Z,17.30
2018-09-20T20:49:55.793Z,17.10
2018-09-20T20:52:24.446Z,17.10
2018-09-20T20:54:53.027Z,17.10
2018-09-20T20:57:21.639Z,16.90
2018-09-20T20:59:50.244Z,17.00
2018-09-20T21:02:18.795Z,16.70
2018-09-20T21:04:47.329Z,16.70
2018-09-20T21:07:15.865Z,16.80
2018-09-20T21:09:44.354Z,16.70
2018-09-20T21:12:12.962Z,16.50
2018-09-20T21:14:41.575Z,16.30
2018-09-20T21:17:10.096Z,16.40
2018-09-20T21:19:38.561Z,16.30
2018-09-20T21:22:07.175Z,16.40
2018-09-20T21:24:35.735Z,16.20
2018-09-20T21:27:04.311Z,16.00
2018-09-20T21:29:32.822Z,16.00
2018-09-20T21:32:01.388Z,16.00
2018-09-20T21:34:29.906Z,15.80
2018-09-20T21:36:58.440Z,15.80
2018-09-20T21:39:27.005Z,15.60
2018-09-20T21:41:55.516Z,15.80
2018-09-20T21:44:24.036Z,15.90
2018-09-20T21:46:52.562Z,16.00
2018-09-20T21:49:21.098Z,16.00
2018-09-20T21:51:49.622Z,16.00
2018-09-20T21:54:18.161Z,16.00
2018-09-20T21:56:46.715Z,15.80
2018-09-20T21:59:15.304Z,15.70
2018-09-20T22:01:49.178Z,15.70
2018-09-20T22:04:17.683Z,15.60
2018-09-20T22:06:46.175Z,15.40
2018-09-20T22:09:14.725Z,15.30
2018-09-20T22:11:43.217Z,15.30
2018-09-20T22:14:11.763Z,15.20
2018-09-20T22:16:40.306Z,15.40
2018-09-20T22:19:08.823Z,15.30
2018-09-20T22:21:37.330Z,15.20
2018-09-20T22:24:05.863Z,15.10
2018-09-20T22:26:34.402Z,15.20
2018-09-20T22:29:02.955Z,15.30
2018-09-20T22:31:31.458Z,15.20
2018-09-20T22:33:59.992Z,15.10
2018-09-20T22:36:28.481Z,14.90
2018-09-20T22:38:56.978Z,15.10
2018-09-20T22:41:25.489Z,14.90
2018-09-20T22:43:54.054Z,14.90
2018-09-20T22:46:22.572Z,14.80
2018-09-20T22:48:51.086Z,14.80
2018-09-20T22:51:19.639Z,14.80
2018-09-20T22:53:48.149Z,14.90
2018-09-20T22:56:16.659Z,14.80
2018-09-20T22:58:45.157Z,14.80
2018-09-20T23:01:16.861Z,14.80
2018-09-20T23:03:45.934Z,14.90
2018-09-20T23:06:14.496Z,14.70
2018-09-20T23:08:43.095Z,14.80
2018-09-20T23:11:11.670Z,14.80
2018-09-20T23:13:40.294Z,14.80
2018-09-20T23:16:08.888Z,14.80
2018-09-20T23:18:37.506Z,14.80
2018-09-20T23:21:06.236Z,14.80
2018-09-20T23:23:34.798Z,14.80
2018-09-20T23:26:03.384Z,14.70
2018-09-20T23:28:31.945Z,14.60
2018-09-20T23:31:00.535Z,14.50
2018-09-20T23:33:29.081Z,14.20
2018-09-20T23:35:57.659Z,14.20
2018-09-20T23:38:26.200Z,14.10
2018-09-20T23:40:54.796Z,14.00
2018-09-20T23:43:23.340Z,13.90
2018-09-20T23:45:51.884Z,14.00
2018-09-20T23:48:20.488Z,13.90
2018-09-20T23:50:49.086Z,13.90
2018-09-20T23:53:17.673Z,14.00
2018-09-20T23:55:46.220Z,14.00
2018-09-20T23:58:14.793Z,13.80
